Time;durP1;ratioP1;P1;durP2;ratioP2;P2;SDS_P1;SDS_P2;PMS_P1;PMS_P2;Temp;Humidity;BMP_temperature;BMP_pressure;BME280_temperature;BME280_humidity;BME280_pressure;Samples;Min_cycle;Max_cycle;Signal;HPM_P1;HPM_P2
2021/11/27 00:43:15;;;;;;;21.40;12.73;;;;;;;4.58;100.00;97529.37;1691113;83;20966;-69
2021/11/27 00:45:45;;;;;;;24.87;13.78;;;;;;;4.58;100.00;97529.37;1698544;83;21003;-68
2021/11/27 00:48:17;;;;;;;20.08;12.55;;;;;;;4.52;100.00;97525.79;1682238;83;21576;-69
2021/11/27 00:50:52;;;;;;;25.52;12.37;;;;;;;4.52;100.00;97526.59;1669652;83;21117;-68
2021/11/27 00:53:21;;;;;;;26.25;13.48;;;;;;;4.52;100.00;97526.59;1694252;83;21497;-69
2021/11/27 00:55:54;;;;;;;23.47;12.40;;;;;;;4.51;100.00;97509.25;1710324;84;20991;-69
2021/11/27 00:58:27;;;;;;;22.73;13.03;;;;;;;4.50;100.00;97507.09;1673437;84;20971;-69
2021/11/27 01:01:01;;;;;;;20.55;11.63;;;;;;;4.50;100.00;97504.38;1697163;84;20948;-69
2021/11/27 01:03:30;;;;;;;22.60;11.90;;;;;;;4.52;100.00;97504.05;1691607;83;21524;-70
2021/11/27 01:06:03;;;;;;;21.82;12.25;;;;;;;4.53;100.00;97505.09;1660847;84;20931;-69
2021/11/27 01:08:32;;;;;;;20.20;11.00;;;;;;;4.55;100.00;97489.81;1687480;83;21019;-68
2021/11/27 01:11:18;;;;;;;19.90;12.28;;;;;;;4.57;100.00;97491.65;1691419;83;20911;-68
2021/11/27 01:13:47;;;;;;;20.10;12.00;;;;;;;4.58;100.00;97492.68;1675190;84;21060;-67
2021/11/27 01:16:17;;;;;;;20.92;10.80;;;;;;;4.61;100.00;97491.23;1669933;83;21158;-67
2021/11/27 01:18:48;;;;;;;31.05;12.85;;;;;;;4.64;100.00;97487.83;1679202;85;20964;-66
2021/11/27 01:21:21;;;;;;;22.22;11.75;;;;;;;4.69;100.00;97481.41;1669572;84;20912;-68
2021/11/27 01:23:48;;;;;;;23.27;12.17;;;;;;;4.72;100.00;97465.81;1691264;83;20908;-68
2021/11/27 01:26:19;;;;;;;20.65;11.38;;;;;;;4.77;100.00;97467.78;1707768;83;21006;-68
2021/11/27 01:28:48;;;;;;;18.33;9.37;;;;;;;4.80;100.00;97454.09;1698487;83;21196;-68
2021/11/27 01:31:20;;;;;;;16.07;9.30;;;;;;;4.84;100.00;97456.39;1669076;84;21475;-68
2021/11/27 01:33:49;;;;;;;20.12;9.13;;;;;;;4.89;100.00;97443.41;1680420;83;20960;-68
2021/11/27 01:36:22;;;;;;;17.92;9.48;;;;;;;4.94;100.00;97433.70;1671833;83;20960;-68
2021/11/27 01:38:52;;;;;;;19.20;8.60;;;;;;;5.02;100.00;97431.25;1694546;84;20972;-69
2021/11/27 01:41:19;;;;;;;20.20;10.65;;;;;;;5.07;100.00;97436.50;1687865;83;21165;-68
2021/11/27 01:43:51;;;;;;;19.70;9.58;;;;;;;5.09;100.00;97432.32;1690885;83;20968;-68
2021/11/27 01:46:22;;;;;;;;;;;;;;;5.14;100.00;97438.13;1685914;84;20944;-68
2021/11/27 01:48:52;;;;;;;34.48;11.15;;;;;;;5.17;100.00;97420.59;1682217;84;20210;-68
2021/11/27 01:51:21;;;;;;;36.75;11.80;;;;;;;5.21;100.00;97424.20;1689325;83;20968;-69
2021/11/27 01:54:02;;;;;;;34.08;10.10;;;;;;;5.24;100.00;97424.90;1681800;84;21063;-68
2021/11/27 01:56:30;;;;;;;24.85;9.95;;;;;;;5.28;100.00;97412.23;1692957;83;21104;-68
2021/11/27 01:59:03;;;;;;;29.37;10.53;;;;;;;5.33;100.00;97410.44;1693720;84;21002;-69
2021/11/27 02:01:38;;;;;;;29.75;9.40;;;;;;;5.35;100.00;97410.90;1663607;85;20991;-68
2021/11/27 02:04:08;;;;;;;31.45;10.90;;;;;;;5.38;100.00;97404.79;1688754;83;20956;-69
2021/11/27 02:06:41;;;;;;;25.12;8.78;;;;;;;5.41;100.00;97408.20;1689752;84;22441;-69
2021/11/27 02:09:20;;;;;;;27.82;10.38;;;;;;;5.42;100.00;97394.83;1694736;84;20948;-69
2021/11/27 02:11:47;;;;;;;20.85;7.85;;;;;;;5.45;100.00;97383.28;1693206;84;20970;-69
2021/11/27 02:14:16;;;;;;;16.77;7.83;;;;;;;5.47;100.00;97388.62;1684576;83;21008;-70
2021/11/27 02:16:55;;;;;;;28.98;10.30;;;;;;;5.49;100.00;97370.03;1693232;84;21031;-68
2021/11/27 02:19:30;;;;;;;18.87;7.78;;;;;;;5.52;100.00;97379.45;1694375;84;25131;-69
2021/11/27 02:22:02;;;;;;;14.28;6.28;;;;;;;5.53;100.00;97376.39;1666737;84;20887;-67
2021/11/27 02:24:34;;;;;;;12.75;5.78;;;;;;;5.55;100.00;97374.13;1693461;84;21011;-67
2021/11/27 02:27:05;;;;;;;13.15;6.65;;;;;;;5.60;100.00;97369.05;1698837;82;21367;-68
2021/11/27 02:29:41;;;;;;;19.35;7.08;;;;;;;5.63;100.00;97364.30;1695646;82;21019;-69
2021/11/27 02:32:16;;;;;;;12.75;6.10;;;;;;;5.65;100.00;97368.84;1682913;84;21034;-69
2021/11/27 02:34:43;;;;;;;12.13;6.25;;;;;;;5.69;100.00;97370.32;1692339;83;21050;-68
2021/11/27 02:37:16;;;;;;;16.95;6.22;;;;;;;5.73;100.00;97361.14;1694165;84;20968;-68
2021/11/27 02:39:50;;;;;;;15.90;6.70;;;;;;;5.76;100.00;97361.83;1666764;84;21071;-69
2021/11/27 02:42:25;;;;;;;12.18;4.92;;;;;;;5.80;100.00;97340.94;1694498;83;20960;-68
2021/11/27 02:44:57;;;;;;;12.50;6.03;;;;;;;5.84;100.00;97346.50;1694118;84;21187;-68
2021/11/27 02:47:25;;;;;;;13.48;5.15;;;;;;;5.84;100.00;97346.50;1689418;83;20995;-70
2021/11/27 02:49:59;;;;;;;7.72;4.03;;;;;;;5.84;100.00;97341.85;1693945;83;21058;-70
2021/11/27 02:52:30;;;;;;;4.85;3.50;;;;;;;5.88;100.00;97342.77;1633248;87;21454;-68
2021/11/27 02:54:59;;;;;;;4.65;3.50;;;;;;;5.91;100.00;97346.77;1689572;83;21510;-69
2021/11/27 02:57:29;;;;;;;4.58;3.55;;;;;;;5.90;100.00;97345.98;1692800;84;21048;-69
2021/11/27 03:00:01;;;;;;;4.28;3.17;;;;;;;5.95;100.00;97342.24;1698693;83;20974;-69
2021/11/27 03:02:34;;;;;;;4.77;3.93;;;;;;;5.99;100.00;97335.55;1694664;84;21498;-69
2021/11/27 03:05:08;;;;;;;5.55;4.15;;;;;;;6.01;100.00;97333.28;1674589;84;21068;-68
2021/11/27 03:07:34;;;;;;;4.33;3.90;;;;;;;6.05;100.00;97332.27;1698069;83;20963;-69
2021/11/27 03:10:05;;;;;;;4.97;3.95;;;;;;;6.09;100.00;97329.66;1696839;83;20958;-69
2021/11/27 03:12:38;;;;;;;4.80;3.60;;;;;;;6.11;100.00;97331.47;1670278;84;20995;-70
2021/11/27 03:15:14;;;;;;;4.30;3.22;;;;;;;6.13;100.00;97331.36;1692046;83;21015;-69
2021/11/27 03:17:44;;;;;;;6.72;3.60;;;;;;;6.14;100.00;97321.27;1694281;84;21604;-71
2021/11/27 03:20:12;;;;;;;5.55;3.92;;;;;;;6.15;100.00;97325.01;1698367;83;21002;-70
2021/11/27 03:22:42;;;;;;;7.00;4.55;;;;;;;6.18;100.00;97328.98;1695118;81;21168;-70
2021/11/27 03:25:10;;;;;;;7.17;4.67;;;;;;;6.19;100.00;97326.48;1697132;84;20912;-71
2021/11/27 03:27:41;;;;;;;9.50;4.50;;;;;;;6.22;100.00;97324.44;1697594;82;20971;-69
2021/11/27 03:30:15;;;;;;;6.87;5.15;;;;;;;6.22;100.00;97328.53;1693220;84;21010;-72
2021/11/27 03:32:47;;;;;;;12.95;5.28;;;;;;;6.25;100.00;97312.86;1684455;83;21078;-68
2021/11/27 03:35:20;;;;;;;7.05;5.40;;;;;;;6.27;100.00;97311.95;1643148;85;21397;-69
2021/11/27 03:37:53;;;;;;;7.65;5.40;;;;;;;6.29;100.00;97326.03;1671210;84;20948;-70
2021/11/27 03:40:26;;;;;;;8.10;6.20;;;;;;;6.31;100.00;97317.52;1685519;83;33733;-70
2021/11/27 03:42:55;;;;;;;7.90;6.37;;;;;;;6.33;100.00;97322.85;1715562;83;21032;-70
2021/11/27 03:45:30;;;;;;;12.18;7.00;;;;;;;6.36;100.00;97319.98;1685118;83;21538;-70
2021/11/27 03:48:08;;;;;;;12.73;6.85;;;;;;;6.39;100.00;97324.18;1707867;82;21830;-71
2021/11/27 03:50:49;;;;;;;13.72;8.83;;;;;;;6.41;100.00;97316.45;1689484;83;20907;-69
2021/11/27 03:53:20;;;;;;;12.65;8.90;;;;;;;6.45;100.00;97312.48;1722261;83;20907;-70
2021/11/27 03:55:51;;;;;;;13.00;8.98;;;;;;;6.46;100.00;97310.77;1717782;82;21060;-70
2021/11/27 03:58:23;;;;;;;12.50;8.50;;;;;;;6.49;100.00;97301.91;1680783;83;21023;-70
2021/11/27 04:00:54;;;;;;;14.23;9.48;;;;;;;6.49;100.00;97305.20;1697401;83;21924;-69
2021/11/27 04:03:27;;;;;;;14.58;9.80;;;;;;;6.50;100.00;97302.14;1718374;82;20912;-70
2021/11/27 04:06:02;;;;;;;17.07;11.30;;;;;;;6.52;100.00;97305.88;1692094;83;21003;-69
2021/11/27 04:08:32;;;;;;;24.43;14.90;;;;;;;6.52;100.00;97306.67;1719508;82;20992;-74
2021/11/27 04:11:00;;;;;;;24.37;16.95;;;;;;;6.53;100.00;97302.81;1722341;81;21007;-74
2021/11/27 04:13:41;;;;;;;24.60;16.30;;;;;;;6.55;100.00;97306.56;1711588;83;21124;-74
2021/11/27 04:16:03;;;;;;;33.28;18.05;;;;;;;6.56;100.00;97310.30;1710696;81;20907;-74
2021/11/27 04:18:36;;;;;;;26.87;17.48;;;;;;;6.58;100.00;97306.67;1723350;83;20991;-69
2021/11/27 04:21:08;;;;;;;24.60;17.03;;;;;;;6.58;100.00;97311.33;1722108;81;20916;-70
2021/11/27 04:23:41;;;;;;;32.85;25.23;;;;;;;6.61;100.00;97316.89;1717875;82;21019;-69
2021/11/27 04:26:10;;;;;;;31.33;22.45;;;;;;;6.63;100.00;97326.88;1710814;83;26805;-68
2021/11/27 04:28:42;;;;;;;27.05;19.07;;;;;;;6.67;100.00;97333.80;1666156;85;20911;-73
2021/11/27 04:31:09;;;;;;;24.92;17.17;;;;;;;6.69;100.00;97337.55;1709089;83;20951;-69
2021/11/27 04:33:49;;;;;;;27.45;18.37;;;;;;;6.70;100.00;97329.59;1711378;82;20912;-72
2021/11/27 04:36:17;;;;;;;23.00;15.78;;;;;;;6.69;100.00;97327.44;1672829;83;21747;-68
2021/11/27 04:38:48;;;;;;;28.32;16.75;;;;;;;6.68;100.00;97331.88;1707062;83;21163;-68
2021/11/27 04:41:17;;;;;;;31.77;20.55;;;;;;;6.65;100.00;97330.63;1705927;83;20966;-70
2021/11/27 04:43:47;;;;;;;25.08;16.55;;;;;;;6.62;100.00;97336.20;1710535;83;21125;-68
2021/11/27 04:46:21;;;;;;;23.32;15.85;;;;;;;6.60;100.00;97335.74;1692371;83;20995;-68
2021/11/27 04:48:52;;;;;;;24.02;16.15;;;;;;;6.58;100.00;97338.59;1696641;83;21011;-68
2021/11/27 04:51:18;;;;;;;25.08;15.75;;;;;;;6.54;100.00;97328.14;1704336;82;21974;-68
2021/11/27 04:53:48;;;;;;;32.60;19.85;;;;;;;6.54;100.00;97330.30;1700100;83;21042;-68
2021/11/27 04:56:15;;;;;;;31.07;19.60;;;;;;;6.52;100.00;97333.94;1697213;83;20997;-70
2021/11/27 04:58:44;;;;;;;34.38;20.60;;;;;;;6.49;100.00;97335.19;1712827;81;20947;-68
2021/11/27 05:01:17;;;;;;;30.10;19.82;;;;;;;6.48;100.00;97330.30;1713049;83;21058;-71
2021/11/27 05:03:48;;;;;;;34.85;21.35;;;;;;;6.48;100.00;97337.12;1711699;82;21541;-71
2021/11/27 05:06:22;;;;;;;33.35;21.87;;;;;;;6.49;100.00;97345.52;1704987;82;20915;-70
2021/11/27 05:08:50;;;;;;;41.20;23.18;;;;;;;6.49;100.00;97344.73;1711809;83;20999;-70
2021/11/27 05:11:22;;;;;;;42.35;26.62;;;;;;;6.50;100.00;97341.66;1709116;82;21448;-71
2021/11/27 05:13:56;;;;;;;43.80;25.92;;;;;;;6.53;100.00;97345.06;1710610;81;20973;-68
2021/11/27 05:16:23;;;;;;;36.00;22.50;;;;;;;6.56;100.00;97358.58;1698300;83;21105;-69
2021/11/27 05:18:58;;;;;;;42.73;22.30;;;;;;;6.60;100.00;97359.48;1712789;81;21532;-68
2021/11/27 05:21:37;;;;;;;35.48;20.27;;;;;;;6.62;100.00;97366.75;1706890;81;20995;-68
2021/11/27 05:24:13;;;;;;;41.00;21.77;;;;;;;6.67;100.00;97362.43;1698342;83;21028;-69
2021/11/27 05:27:01;;;;;;;35.60;21.55;;;;;;;6.67;100.00;97356.19;1662494;84;20960;-69
2021/11/27 05:29:37;;;;;;;42.85;22.42;;;;;;;6.69;100.00;97360.72;1669153;84;21143;-70
2021/11/27 05:32:37;;;;;;;45.10;24.37;;;;;;;6.72;100.00;97357.31;1676741;83;21035;-68
2021/11/27 05:34:57;;;;;;;41.55;23.02;;;;;;;6.69;100.00;97356.06;1688948;81;20889;-68
2021/11/27 05:37:26;;;;;;;38.20;21.85;;;;;;;6.71;100.00;97362.55;1679412;85;20948;-70
2021/11/27 05:39:55;;;;;;;43.68;23.18;;;;;;;6.69;100.00;97357.43;1698886;83;20983;-68
2021/11/27 05:42:25;;;;;;;39.05;23.20;;;;;;;6.69;100.00;97364.81;1689859;84;21008;-69
2021/11/27 05:44:58;;;;;;;39.95;21.40;;;;;;;6.68;100.00;97361.86;1666660;84;21011;-68
2021/11/27 05:47:25;;;;;;;42.35;20.68;;;;;;;6.66;100.00;97363.56;1695131;83;21003;-71
2021/11/27 05:49:58;;;;;;;44.58;23.73;;;;;;;6.64;100.00;97363.11;1694318;84;20932;-69
2021/11/27 05:52:30;;;;;;;39.58;22.15;;;;;;;6.63;100.00;97370.50;1656989;84;21521;-69
2021/11/27 05:55:09;;;;;;;54.93;28.57;;;;;;;6.61;100.00;97359.71;1700741;83;21152;-70
2021/11/27 05:57:38;;;;;;;56.45;29.32;;;;;;;6.59;100.00;97369.59;1702915;83;22052;-71
2021/11/27 06:00:10;;;;;;;48.55;25.90;;;;;;;6.59;100.00;97372.89;1656223;85;20956;-70
2021/11/27 06:02:42;;;;;;;55.85;27.40;;;;;;;6.57;100.00;97379.25;1659793;85;20900;-71
2021/11/27 06:05:13;;;;;;;66.10;32.45;;;;;;;6.56;100.00;97382.55;1653192;86;21045;-70
2021/11/27 06:07:41;;;;;;;62.93;33.78;;;;;;;6.57;100.00;97384.14;1686484;83;21164;-72
2021/11/27 06:10:12;;;;;;;78.57;37.73;;;;;;;6.57;100.00;97392.31;1681875;85;21538;-70
2021/11/27 06:12:47;;;;;;;78.05;39.48;;;;;;;6.57;100.00;97390.95;1668282;84;21034;-68
2021/11/27 06:15:16;;;;;;;66.28;37.50;;;;;;;6.56;100.00;97392.09;1680139;84;21469;-71
2021/11/27 06:17:49;;;;;;;68.80;38.42;;;;;;;6.57;100.00;97396.41;1695419;83;21038;-69
2021/11/27 06:20:19;;;;;;;75.70;37.53;;;;;;;6.61;100.00;97400.61;1693878;84;21203;-71
2021/11/27 06:22:51;;;;;;;66.50;34.65;;;;;;;6.62;100.00;97404.92;1668765;84;21502;-68
2021/11/27 06:25:22;;;;;;;70.25;36.75;;;;;;;6.62;100.00;97404.92;1684313;84;21066;-68
2021/11/27 06:27:54;;;;;;;69.42;35.95;;;;;;;6.63;100.00;97405.94;1733909;81;20998;-70
2021/11/27 06:30:26;;;;;;;73.62;40.88;;;;;;;6.64;100.00;97409.46;1720820;83;21537;-69
2021/11/27 06:32:59;;;;;;;70.03;39.63;;;;;;;6.68;100.00;97417.75;1727945;81;21102;-69
2021/11/27 06:35:26;;;;;;;71.10;37.45;;;;;;;6.69;100.00;97419.34;1737425;82;20912;-69
2021/11/27 06:37:56;;;;;;;65.57;35.80;;;;;;;6.71;100.00;97423.33;1695069;83;21518;-68
2021/11/27 06:40:26;;;;;;;83.65;42.48;;;;;;;6.73;100.00;97421.05;1713814;82;21106;-68
2021/11/27 06:43:00;;;;;;;75.03;39.15;;;;;;;6.76;100.00;97418.20;1668999;83;21560;-70
2021/11/27 06:45:30;;;;;;;66.47;38.05;;;;;;;6.78;100.00;97410.48;1687699;83;21144;-68
2021/11/27 06:48:09;;;;;;;69.30;38.58;;;;;;;6.78;100.00;97398.21;1676968;84;21502;-70
2021/11/27 06:50:44;;;;;;;73.78;41.50;;;;;;;6.79;100.00;97404.69;1694916;84;20883;-69
2021/11/27 06:53:11;;;;;;;69.87;38.40;;;;;;;6.81;100.00;97408.43;1686216;83;21060;-70
2021/11/27 06:55:45;;;;;;;72.25;39.13;;;;;;;6.82;100.00;97408.66;1666554;84;20995;-69
2021/11/27 06:58:16;;;;;;;60.83;35.20;;;;;;;6.83;100.00;97412.97;1697849;83;21128;-70
2021/11/27 07:00:55;;;;;;;69.85;37.05;;;;;;;6.84;100.00;97424.11;1693515;83;21020;-69
2021/11/27 07:03:26;;;;;;;65.75;34.20;;;;;;;6.85;100.00;97433.31;1691984;83;21087;-70
2021/11/27 07:06:11;;;;;;;65.92;34.03;;;;;;;6.86;100.00;97421.84;1694468;83;20880;-69
2021/11/27 07:08:40;;;;;;;71.50;35.68;;;;;;;6.88;100.00;97417.63;1695737;83;21029;-69
2021/11/27 07:11:11;;;;;;;67.60;34.15;;;;;;;6.88;100.00;97416.27;1707239;83;21194;-69
2021/11/27 07:13:40;;;;;;;62.78;34.03;;;;;;;6.91;100.00;97416.15;1658972;84;20944;-68
2021/11/27 07:16:15;;;;;;;61.60;33.48;;;;;;;6.93;100.00;97420.69;1664480;84;21055;-68
2021/11/27 07:18:43;;;;;;;66.25;34.30;;;;;;;6.94;100.00;97424.98;1663786;84;21598;-69
2021/11/27 07:21:14;;;;;;;66.90;34.45;;;;;;;6.94;100.00;97431.80;1692140;83;21134;-69
2021/11/27 07:23:46;;;;;;;63.83;34.53;;;;;;;6.96;100.00;97442.59;1663259;84;21046;-69
2021/11/27 07:26:22;;;;;;;61.15;32.17;;;;;;;6.99;100.00;97437.02;1710270;81;21517;-71
2021/11/27 07:28:58;;;;;;;69.67;35.23;;;;;;;7.03;100.00;97435.20;1668940;83;21031;-69
2021/11/27 07:31:26;;;;;;;;;;;;;;;7.10;100.00;97433.26;1708791;83;20939;-72
2021/11/27 07:33:55;;;;;;;60.92;33.92;;;;;;;7.14;100.00;97434.95;1690212;83;20467;-70
2021/11/27 07:36:25;;;;;;;73.00;34.73;;;;;;;7.20;100.00;97438.23;1659851;85;20912;-78
2021/11/27 07:38:58;;;;;;;58.00;32.90;;;;;;;7.26;100.00;97434.93;1688487;83;20923;-67
2021/11/27 07:41:26;;;;;;;64.10;33.05;;;;;;;7.36;100.00;97433.66;1679768;83;21526;-71
2021/11/27 07:43:57;;;;;;;59.98;33.00;;;;;;;7.45;100.00;97444.44;1677418;84;21064;-68
2021/11/27 07:46:33;;;;;;;64.58;34.63;;;;;;;7.55;100.00;97444.72;1672325;83;21131;-72
2021/11/27 07:49:21;;;;;;;62.78;33.53;;;;;;;7.65;100.00;97457.66;1679460;84;21232;-69
2021/11/27 07:51:54;;;;;;;63.70;32.93;;;;;;;7.74;100.00;97458.30;1676113;85;20964;-69
2021/11/27 07:54:25;;;;;;;55.58;32.28;;;;;;;7.81;100.00;97463.40;1677767;83;20960;-67
2021/11/27 07:56:57;;;;;;;54.88;31.42;;;;;;;7.84;100.00;97459.97;1682387;84;21013;-70
2021/11/27 07:59:29;;;;;;;53.55;30.57;;;;;;;7.85;100.00;97464.30;1682378;83;21027;-70
2021/11/27 08:01:59;;;;;;;57.17;31.17;;;;;;;7.87;100.00;97468.84;1679622;85;21562;-68
2021/11/27 08:04:26;;;;;;;55.38;30.72;;;;;;;7.93;100.00;97473.48;1676084;83;21059;-69
2021/11/27 08:06:58;;;;;;;45.92;28.77;;;;;;;7.99;100.00;97469.92;1679173;85;21015;-69
2021/11/27 08:09:31;;;;;;;46.68;27.98;;;;;;;8.05;100.00;97472.06;1659984;85;21024;-68
2021/11/27 08:12:02;;;;;;;55.38;30.92;;;;;;;8.12;100.00;97465.39;1675910;83;21044;-70
2021/11/27 08:14:32;;;;;;;57.25;30.02;;;;;;;8.25;100.00;97466.12;1669200;86;21949;-73
2021/11/27 08:17:06;;;;;;;52.23;29.35;;;;;;;8.44;100.00;97467.62;1679206;84;22360;-68
2021/11/27 08:19:36;;;;;;;51.02;29.18;;;;;;;8.65;100.00;97463.84;1684256;84;20946;-68
2021/11/27 08:22:03;;;;;;;53.83;27.87;;;;;;;8.79;100.00;97463.59;1692782;84;21020;-67
2021/11/27 08:24:32;;;;;;;50.40;29.32;;;;;;;8.97;100.00;97464.02;1680404;83;21130;-70
2021/11/27 08:27:03;;;;;;;46.23;25.92;;;;;;;9.20;100.00;97460.84;1660700;85;21027;-69
2021/11/27 08:29:36;;;;;;;45.75;25.90;;;;;;;9.41;100.00;97456.38;1698114;83;21003;-70
2021/11/27 08:32:10;;;;;;;44.23;26.90;;;;;;;9.51;100.00;97450.34;1696627;83;21032;-67
2021/11/27 08:34:43;;;;;;;40.88;24.35;;;;;;;9.58;100.00;97447.75;1696512;83;21079;-65
2021/11/27 08:37:16;;;;;;;44.93;26.33;;;;;;;9.64;100.00;97453.74;1708167;82;21492;-68
2021/11/27 08:39:43;;;;;;;39.20;22.55;;;;;;;9.72;100.00;97454.11;1681106;82;21107;-72
2021/11/27 08:42:10;;;;;;;29.20;18.95;;;;;;;9.64;100.00;97453.74;1650674;85;21074;-68
2021/11/27 08:44:41;;;;;;;30.27;18.57;;;;;;;9.43;100.00;97460.13;1645474;85;21094;-70
2021/11/27 08:47:14;;;;;;;32.95;19.42;;;;;;;9.31;100.00;97467.10;1667443;85;20960;-65
2021/11/27 08:49:44;;;;;;;31.33;19.70;;;;;;;9.22;100.00;97472.23;1658917;85;21035;-70
2021/11/27 08:52:14;;;;;;;30.27;18.82;;;;;;;9.15;100.00;97474.80;1671299;85;21213;-69
2021/11/27 08:54:48;;;;;;;31.05;20.30;;;;;;;9.05;100.00;97472.61;1675427;84;20987;-78
2021/11/27 08:57:16;;;;;;;26.62;17.98;;;;;;;9.00;100.00;97476.20;1689077;82;21426;-69
2021/11/27 08:59:45;;;;;;;33.60;21.17;;;;;;;9.02;100.00;97478.00;1681803;83;21015;-71
2021/11/27 09:02:17;;;;;;;29.55;19.80;;;;;;;9.04;100.00;97471.59;1709241;82;20995;-71
2021/11/27 09:04:46;;;;;;;32.15;19.27;;;;;;;9.14;100.00;97482.00;1708935;84;21832;-71
2021/11/27 09:07:19;;;;;;;28.57;18.33;;;;;;;9.27;100.00;97489.72;1688579;84;21023;-74
2021/11/27 09:09:51;;;;;;;32.75;20.77;;;;;;;9.43;100.00;97489.69;1711905;82;20927;-68
2021/11/27 09:12:23;;;;;;;34.90;21.82;;;;;;;9.68;100.00;97483.95;1710499;83;20916;-71
2021/11/27 09:14:59;;;;;;;34.50;20.50;;;;;;;10.12;100.00;97484.42;1684781;82;21043;-70
2021/11/27 09:17:27;;;;;;;31.60;21.05;;;;;;;10.44;100.00;97489.94;1701246;84;21481;-70
2021/11/27 09:19:57;;;;;;;33.33;20.08;;;;;;;10.62;100.00;97494.37;1685740;83;20940;-66
2021/11/27 09:22:29;;;;;;;34.53;19.07;;;;;;;10.72;100.00;97494.34;1708853;82;20863;-70
2021/11/27 09:24:56;;;;;;;25.82;15.78;;;;;;;10.71;98.34;97491.39;1708482;84;21035;-70
2021/11/27 09:27:24;;;;;;;26.15;16.77;;;;;;;10.74;97.81;97492.82;1708222;83;21004;-70
2021/11/27 09:29:56;;;;;;;24.00;15.78;;;;;;;10.95;95.11;97488.84;1708604;82;21133;-70
2021/11/27 09:32:31;;;;;;;24.40;16.82;;;;;;;11.24;97.12;97490.27;1720549;83;20952;-69
2021/11/27 09:35:06;;;;;;;24.30;16.12;;;;;;;11.67;96.13;97485.94;1725717;82;20955;-70
2021/11/27 09:37:38;;;;;;;26.50;17.50;;;;;;;12.03;95.53;97482.50;1688678;84;20897;-67
2021/11/27 09:40:15;;;;;;;20.30;14.63;;;;;;;12.25;94.66;97487.64;1707934;82;20928;-67
2021/11/27 09:42:45;;;;;;;19.05;14.35;;;;;;;12.40;91.34;97489.38;1709495;82;21157;-68
2021/11/27 09:45:18;;;;;;;20.65;14.40;;;;;;;12.41;86.61;97481.33;1702057;82;20948;-69
2021/11/27 09:47:49;;;;;;;19.37;12.90;;;;;;;12.43;89.52;97477.62;1689652;82;20969;-69
2021/11/27 09:50:18;;;;;;;18.30;13.70;;;;;;;12.61;88.70;97479.75;1708160;82;20912;-67
2021/11/27 09:52:49;;;;;;;21.35;15.03;;;;;;;12.64;90.44;97474.88;1708401;84;21066;-68
2021/11/27 09:55:19;;;;;;;18.75;13.50;;;;;;;12.73;95.19;97478.07;1711817;82;21139;-68
2021/11/27 09:57:49;;;;;;;19.25;13.40;;;;;;;12.90;88.79;97474.69;1699667;83;20991;-68
2021/11/27 10:00:24;;;;;;;20.20;12.30;;;;;;;12.75;91.05;97477.11;1678011;83;20984;-68
2021/11/27 10:02:58;;;;;;;16.15;12.15;;;;;;;12.63;89.83;97474.66;1697060;83;20982;-68
2021/11/27 10:05:33;;;;;;;21.10;13.98;;;;;;;12.55;92.52;97473.22;1707590;83;21462;-68
2021/11/27 10:08:04;;;;;;;18.30;12.28;;;;;;;12.68;93.23;97477.07;1640777;83;21158;-67
2021/11/27 10:10:37;;;;;;;16.55;12.68;;;;;;;12.92;95.46;97477.84;1687564;83;21571;-67
2021/11/27 10:13:10;;;;;;;17.90;11.85;;;;;;;13.09;84.24;97466.18;1686009;83;21087;-67
2021/11/27 10:15:41;;;;;;;15.08;10.88;;;;;;;12.85;88.45;97467.56;1661406;85;21436;-68
2021/11/27 10:18:17;;;;;;;17.30;12.33;;;;;;;12.39;89.37;97463.61;1675137;84;21008;-69
2021/11/27 10:20:46;;;;;;;16.85;12.40;;;;;;;12.00;91.65;97476.97;1651047;85;21769;-67
2021/11/27 10:23:19;;;;;;;19.02;12.50;;;;;;;12.11;92.68;97473.75;1691054;84;20960;-68
2021/11/27 10:25:46;;;;;;;21.40;13.98;;;;;;;12.34;90.54;97469.45;1674716;83;20917;-66
2021/11/27 10:28:17;;;;;;;21.80;11.65;;;;;;;12.40;95.72;97475.63;1650769;85;21007;-67
2021/11/27 10:31:02;;;;;;;15.00;11.05;;;;;;;12.37;88.56;97476.38;1659695;85;21513;-68
2021/11/27 10:33:38;;;;;;;16.57;10.48;;;;;;;12.31;92.64;97477.88;1688393;83;21098;-67
2021/11/27 10:36:13;;;;;;;13.65;10.23;;;;;;;12.09;91.14;97472.75;1665257;84;20920;-66
2021/11/27 10:38:47;;;;;;;;;;;;;;;11.72;90.54;97470.50;1678181;83;21055;-67
2021/11/27 10:41:17;;;;;;;18.20;11.05;;;;;;;11.71;91.53;97482.07;1683067;82;20146;-67
2021/11/27 10:44:12;;;;;;;15.70;9.80;;;;;;;12.08;94.31;97489.63;1642532;86;20876;-67
2021/11/27 10:46:35;;;;;;;17.30;11.38;;;;;;;12.27;93.16;97490.02;1637741;86;21190;-65
2021/11/27 11:11:47;;;;;;;11.48;7.85;;;;;;;15.59;79.89;97514.02;1650954;83;21131;-74
2021/11/27 11:14:25;;;;;;;13.75;7.87;;;;;;;15.60;78.64;97518.96;1604666;87;21071;-76
2021/11/27 11:16:56;;;;;;;13.72;8.03;;;;;;;15.69;80.71;97507.66;1663964;85;21909;-78
2021/11/27 11:19:25;;;;;;;10.00;7.78;;;;;;;15.94;74.29;97507.59;1649424;85;21002;-77
2021/11/27 11:22:11;;;;;;;11.57;7.60;;;;;;;16.10;85.46;97527.30;1654719;85;20975;-76
2021/11/27 11:24:40;;;;;;;10.55;7.65;;;;;;;15.91;79.44;97519.45;1663699;84;21509;-79
2021/11/27 11:27:11;;;;;;;11.93;6.70;;;;;;;15.13;81.31;97524.48;1637754;87;21501;-74
2021/11/27 11:29:48;;;;;;;9.70;7.08;;;;;;;14.42;78.64;97523.63;1645993;86;21239;-75
2021/11/27 11:32:27;;;;;;;18.70;7.80;;;;;;;13.81;85.32;97534.98;1665840;85;20926;-74
2021/11/27 11:34:58;;;;;;;16.32;10.43;;;;;;;13.50;87.81;97550.92;1603634;88;21653;-75
2021/11/27 11:37:25;;;;;;;8.88;7.15;;;;;;;13.31;83.32;97551.75;1600609;88;21659;-74
2021/11/27 11:39:52;;;;;;;11.38;8.23;;;;;;;13.15;86.80;97543.75;1599245;87;20991;-74
2021/11/27 11:42:20;;;;;;;11.88;7.65;;;;;;;13.02;90.72;97551.51;1602787;88;21578;-75
2021/11/27 11:44:48;;;;;;;11.33;8.15;;;;;;;12.89;89.33;97551.58;1605688;87;21098;-76
2021/11/27 11:47:16;;;;;;;14.35;8.45;;;;;;;12.72;90.16;97556.33;1615614;88;21019;-77
2021/11/27 11:49:44;;;;;;;11.45;8.55;;;;;;;12.58;92.21;97559.75;1608368;88;21142;-74
2021/11/27 11:52:28;;;;;;;10.18;7.20;;;;;;;12.45;89.83;97560.59;1579094;87;21656;-74
2021/11/27 11:55:01;;;;;;;14.18;7.97;;;;;;;12.26;88.87;97569.58;1610389;87;21252;-74
2021/11/27 11:57:47;;;;;;;13.88;9.13;;;;;;;11.95;84.71;97565.28;1614183;87;21004;-75
2021/11/27 12:00:38;;;;;;;16.05;10.30;;;;;;;11.68;87.45;97579.02;1634000;86;21075;-75
2021/11/27 12:03:10;;;;;;;15.50;9.78;;;;;;;11.51;90.93;97582.31;1639435;86;20994;-74
2021/11/27 12:06:02;;;;;;;16.82;10.10;;;;;;;11.38;91.06;97582.30;1610469;87;21131;-74
2021/11/27 12:08:52;;;;;;;15.15;9.08;;;;;;;11.31;92.35;97587.09;1644967;86;20991;-74
2021/11/27 12:11:52;;;;;;;14.05;9.48;;;;;;;11.28;93.88;97588.41;1627887;86;20947;-75
2021/11/27 12:14:27;;;;;;;16.82;10.63;;;;;;;11.23;92.94;97591.68;1631345;87;21038;-74
2021/11/27 12:17:08;;;;;;;13.18;8.95;;;;;;;11.24;94.25;97591.89;1684437;84;21170;-73
2021/11/27 12:19:44;;;;;;;16.77;9.30;;;;;;;11.29;93.63;97590.00;1674103;83;21143;-74
2021/11/27 12:22:27;;;;;;;12.82;9.30;;;;;;;11.25;93.36;97594.85;1673217;85;21116;-74
2021/11/27 12:25:20;;;;;;;17.50;11.22;;;;;;;11.23;94.18;97597.17;1677729;85;21059;-73
2021/11/27 12:28:07;;;;;;;14.93;10.82;;;;;;;11.20;91.84;97597.91;1651185;85;21135;-74
2021/11/27 12:30:51;;;;;;;13.98;9.70;;;;;;;11.12;93.46;97600.89;1655267;85;21091;-74
2021/11/27 12:33:44;;;;;;;13.75;9.63;;;;;;;11.03;93.44;97607.20;1660660;85;21079;-75
2021/11/27 12:36:32;;;;;;;17.95;10.05;;;;;;;10.96;93.35;97610.65;1665980;85;21802;-75
2021/11/27 12:39:15;;;;;;;17.23;11.40;;;;;;;10.89;94.91;97611.89;1656394;85;20987;-81
2021/11/27 12:41:56;;;;;;;14.78;10.13;;;;;;;10.80;95.45;97620.35;1667911;84;21007;-76
2021/11/27 12:44:28;;;;;;;16.55;11.05;;;;;;;10.74;95.78;97623.75;1599522;87;21081;-76
2021/11/27 12:47:03;;;;;;;15.10;10.32;;;;;;;10.63;94.85;97635.89;1644490;86;21639;-80
2021/11/27 12:49:37;;;;;;;18.52;11.65;;;;;;;10.56;94.68;97644.78;1641585;86;21195;-77
2021/11/27 12:52:24;;;;;;;13.72;9.73;;;;;;;10.50;96.19;97650.34;1628141;86;21073;-79